createdAt,value
2023-01-04T00:00:39.881Z,11
2023-01-04T00:01:39.882Z,11
2023-01-04T00:02:39.881Z,9
2023-01-04T00:03:39.867Z,13
2023-01-04T00:04:39.882Z,12
2023-01-04T00:05:39.883Z,14
2023-01-04T00:06:39.868Z,11
2023-01-04T00:07:39.868Z,10
2023-01-04T00:08:39.882Z,8
2023-01-04T00:09:39.882Z,12
2023-01-04T00:10:39.868Z,14
2023-01-04T00:11:39.882Z,16
2023-01-04T00:12:39.883Z,13
2023-01-04T00:13:39.882Z,14
2023-01-04T00:14:39.868Z,14
2023-01-04T00:15:39.882Z,15
2023-01-04T00:16:39.910Z,13
2023-01-04T00:17:39.883Z,13
2023-01-04T00:18:39.869Z,12
2023-01-04T00:19:39.883Z,13
2023-01-04T00:20:39.883Z,13
2023-01-04T00:21:39.883Z,14
2023-01-04T00:22:39.869Z,15
2023-01-04T00:23:39.883Z,17
2023-01-04T00:24:39.884Z,14
2023-01-04T00:25:39.869Z,15
2023-01-04T00:26:39.869Z,13
2023-01-04T00:27:39.883Z,12
2023-01-04T00:28:39.883Z,14
2023-01-04T00:29:39.869Z,12
2023-01-04T00:30:39.884Z,13
2023-01-04T00:31:39.884Z,11
2023-01-04T00:32:39.884Z,12
2023-01-04T00:33:39.870Z,10
2023-01-04T00:34:39.884Z,9
2023-01-04T00:35:39.885Z,12
2023-01-04T00:37:39.870Z,13
2023-01-04T00:38:39.884Z,10
2023-01-04T00:39:39.885Z,16
2023-01-04T00:40:39.870Z,14
2023-01-04T00:41:39.870Z,13
2023-01-04T00:42:39.884Z,12
2023-01-04T00:43:39.884Z,13
2023-01-04T00:44:39.870Z,14
2023-01-04T00:45:39.885Z,17
2023-01-04T00:46:39.885Z,16
2023-01-04T00:47:39.885Z,19
2023-01-04T00:48:39.871Z,15
2023-01-04T00:49:39.885Z,15
2023-01-04T00:50:39.886Z,14
2023-01-04T00:51:39.885Z,13
2023-01-04T00:52:39.871Z,13
2023-01-04T00:53:39.885Z,11
2023-01-04T00:54:39.886Z,13
2023-01-04T00:55:39.871Z,13
2023-01-04T00:56:39.871Z,14
2023-01-04T00:57:39.885Z,13
2023-01-04T00:58:39.886Z,11
2023-01-04T00:59:39.872Z,11
2023-01-04T01:00:39.886Z,14
2023-01-04T01:01:39.886Z,15
2023-01-04T01:02:39.886Z,10
2023-01-04T01:03:39.872Z,10
2023-01-04T01:04:39.886Z,10
2023-01-04T01:05:39.886Z,14
2023-01-04T01:06:39.886Z,13
2023-01-04T01:07:39.872Z,12
2023-01-04T01:08:39.886Z,10
2023-01-04T01:09:39.887Z,10
2023-01-04T01:10:39.886Z,11
2023-01-04T01:11:39.872Z,12
2023-01-04T01:12:39.887Z,11
2023-01-04T01:13:39.887Z,10
2023-01-04T01:14:39.873Z,10
2023-01-04T01:15:39.873Z,12
2023-01-04T01:16:39.887Z,9
2023-01-04T01:17:39.912Z,8
2023-01-04T01:18:39.873Z,9
2023-01-04T01:19:39.887Z,9
2023-01-04T01:20:39.887Z,10
2023-01-04T01:21:39.887Z,11
2023-01-04T01:22:39.873Z,13
2023-01-04T01:23:39.888Z,13
2023-01-04T01:24:39.888Z,14
2023-01-04T01:25:39.887Z,14
2023-01-04T01:26:39.874Z,14
2023-01-04T01:27:39.888Z,15
2023-01-04T01:28:39.888Z,13
2023-01-04T01:29:39.874Z,13
2023-01-04T01:30:39.874Z,14
2023-01-04T01:31:39.888Z,14
2023-01-04T01:32:39.889Z,14
2023-01-04T01:33:39.874Z,13
2023-01-04T01:34:39.929Z,14
2023-01-04T01:35:39.888Z,14
2023-01-04T01:36:39.888Z,16
2023-01-04T01:37:39.874Z,14
2023-01-04T01:38:39.889Z,12
2023-01-04T01:39:39.916Z,11
2023-01-04T01:40:39.889Z,13
2023-01-04T01:41:39.875Z,11
2023-01-04T01:42:39.889Z,12
2023-01-04T01:43:39.890Z,11
2023-01-04T01:44:39.889Z,11
2023-01-04T01:45:39.875Z,11
2023-01-04T01:46:39.889Z,9
2023-01-04T01:47:39.890Z,10
2023-01-04T01:48:39.875Z,12
2023-01-04T01:49:39.875Z,11
2023-01-04T01:50:39.889Z,10
2023-01-04T01:51:39.915Z,12
2023-01-04T01:52:39.875Z,9
2023-01-04T01:53:39.890Z,8
2023-01-04T01:54:39.890Z,8
2023-01-04T01:55:39.890Z,8
2023-01-04T01:56:39.876Z,7
2023-01-04T01:57:39.890Z,8
2023-01-04T01:58:39.891Z,6
2023-01-04T01:59:39.890Z,8
2023-01-04T02:00:39.876Z,9
2023-01-04T02:01:39.890Z,12
2023-01-04T02:02:39.891Z,8
2023-01-04T02:03:39.876Z,8
2023-01-04T02:04:39.876Z,8
2023-01-04T02:05:39.890Z,7
2023-01-04T02:06:39.891Z,7
2023-01-04T02:07:39.877Z,11
2023-01-04T02:08:39.892Z,12
2023-01-04T02:09:39.891Z,11
2023-01-04T02:10:39.891Z,11
2023-01-04T02:11:39.877Z,12
2023-01-04T02:12:39.891Z,10
2023-01-04T02:13:39.957Z,9
2023-01-04T02:14:39.891Z,10
2023-01-04T02:15:39.877Z,12
2023-01-04T02:16:39.891Z,11
2023-01-04T02:17:39.892Z,11
2023-01-04T02:18:39.891Z,8
2023-01-04T02:19:39.878Z,11
2023-01-04T02:20:39.892Z,8
2023-01-04T02:21:39.892Z,7
2023-01-04T02:22:39.919Z,8
2023-01-04T02:23:39.919Z,8
2023-01-04T02:24:39.933Z,8
2023-01-04T02:25:39.934Z,8
2023-01-04T02:26:39.919Z,8
2023-01-04T02:27:39.933Z,8
2023-01-04T02:28:39.933Z,9
2023-01-04T02:29:39.933Z,8
2023-01-04T02:30:39.919Z,9
2023-01-04T02:31:39.934Z,11
2023-01-04T02:32:39.934Z,10
2023-01-04T02:33:39.934Z,8
2023-01-04T02:34:39.920Z,9
2023-01-04T02:35:39.934Z,8
2023-01-04T02:36:39.934Z,9
2023-01-04T02:37:39.934Z,10
2023-01-04T02:39:39.934Z,10
2023-01-04T02:40:39.935Z,10
2023-01-04T02:41:39.920Z,11
2023-01-04T02:42:39.920Z,8
2023-01-04T02:43:39.934Z,8
2023-01-04T02:44:39.935Z,6
2023-01-04T02:45:39.920Z,9
2023-01-04T02:46:39.935Z,8
2023-01-04T02:47:39.935Z,8
2023-01-04T02:48:39.935Z,9
2023-01-04T02:49:39.921Z,10
2023-01-04T02:50:39.935Z,10
2023-01-04T02:51:39.936Z,10
2023-01-04T02:52:39.935Z,11
2023-01-04T02:53:39.921Z,11
2023-01-04T02:54:39.935Z,11
2023-01-04T02:55:39.936Z,10
2023-01-04T02:56:39.921Z,10
2023-01-04T02:57:39.921Z,11
2023-01-04T02:58:39.935Z,10
2023-01-04T02:59:39.936Z,9
2023-01-04T03:00:39.922Z,12
2023-01-04T03:01:39.922Z,12
2023-01-04T03:02:39.936Z,13
2023-01-04T03:03:39.937Z,11
2023-01-04T03:04:39.922Z,12
2023-01-04T03:05:39.936Z,12
2023-01-04T03:06:39.936Z,12
2023-01-04T03:07:39.936Z,12
2023-01-04T03:08:39.922Z,16
2023-01-04T03:09:39.936Z,10
2023-01-04T03:10:39.937Z,11
2023-01-04T03:11:39.936Z,14
2023-01-04T03:12:39.922Z,11
2023-01-04T03:13:39.937Z,11
2023-01-04T03:14:39.937Z,9
2023-01-04T03:15:39.923Z,9
2023-01-04T03:16:39.923Z,12
2023-01-04T03:17:39.937Z,11
2023-01-04T03:18:39.938Z,8
2023-01-04T03:19:39.923Z,9
2023-01-04T03:20:39.923Z,7
2023-01-04T03:21:39.937Z,8
2023-01-04T03:22:39.937Z,6
2023-01-04T03:23:39.923Z,7
2023-01-04T03:24:39.937Z,5
2023-01-04T03:25:39.937Z,6
2023-01-04T03:26:39.937Z,6
2023-01-04T03:27:39.923Z,5
2023-01-04T03:28:39.938Z,5
2023-01-04T03:29:39.938Z,5
2023-01-04T03:30:39.938Z,3
2023-01-04T03:31:39.924Z,4
2023-01-04T03:32:39.938Z,4
2023-01-04T03:33:39.939Z,5
2023-01-04T03:34:39.924Z,5
2023-01-04T03:35:39.924Z,4
2023-01-04T03:36:39.939Z,5
2023-01-04T03:37:39.939Z,5
2023-01-04T03:38:39.924Z,5
2023-01-04T03:39:39.938Z,5
2023-01-04T03:40:39.938Z,8
2023-01-04T03:41:39.938Z,8
2023-01-04T03:42:39.924Z,7
2023-01-04T03:43:39.939Z,6
2023-01-04T03:44:39.982Z,6
2023-01-04T03:45:39.939Z,8
2023-01-04T03:46:39.925Z,10
2023-01-04T03:47:39.939Z,10
2023-01-04T03:48:39.940Z,10
2023-01-04T03:49:39.939Z,9
2023-01-04T03:50:39.925Z,9
2023-01-04T03:51:39.939Z,9
2023-01-04T03:52:39.940Z,10
2023-01-04T03:53:39.925Z,9
2023-01-04T03:54:39.925Z,7
2023-01-04T03:55:39.939Z,8
2023-01-04T03:56:39.980Z,11
2023-01-04T03:57:39.925Z,6
2023-01-04T03:58:39.940Z,7
2023-01-04T03:59:39.940Z,6
2023-01-04T04:00:39.940Z,7
2023-01-04T04:01:39.926Z,8
2023-01-04T04:02:39.940Z,8
2023-01-04T04:03:45.597Z,8
2023-01-04T04:04:39.940Z,8
2023-01-04T04:05:39.926Z,7
2023-01-04T04:06:39.940Z,8
2023-01-04T04:07:39.941Z,7
2023-01-04T04:08:39.940Z,6
2023-01-04T04:09:39.926Z,8
2023-01-04T04:10:39.981Z,8
2023-01-04T04:11:39.941Z,7
2023-01-04T04:12:39.926Z,9
2023-01-04T04:13:39.926Z,8
2023-01-04T04:14:39.940Z,8
2023-01-04T04:15:39.941Z,10
2023-01-04T04:16:39.927Z,8
2023-01-04T04:17:39.942Z,9
2023-01-04T04:18:39.941Z,8
2023-01-04T04:19:39.941Z,9
2023-01-04T04:20:39.927Z,9
2023-01-04T04:21:39.941Z,9
2023-01-04T04:22:39.941Z,11
2023-01-04T04:23:39.941Z,11
2023-01-04T04:24:39.927Z,11
2023-01-04T04:25:39.942Z,11
2023-01-04T04:26:39.942Z,12
2023-01-04T04:27:39.941Z,12
2023-01-04T04:28:39.927Z,12
2023-01-04T04:29:39.942Z,11
2023-01-04T04:30:39.942Z,10
2023-01-04T04:31:39.928Z,13
2023-01-04T04:32:39.928Z,13
2023-01-04T04:33:39.942Z,12
2023-01-04T04:34:40.006Z,11
2023-01-04T04:35:39.928Z,13
2023-01-04T04:36:39.942Z,12
2023-01-04T04:37:39.942Z,13
2023-01-04T04:38:39.942Z,12
2023-01-04T04:39:39.928Z,13
2023-01-04T04:40:39.942Z,14
2023-01-04T04:41:39.943Z,15
2023-01-04T04:42:39.943Z,11
2023-01-04T04:43:39.928Z,17
2023-01-04T04:44:39.943Z,16
2023-01-04T04:45:39.943Z,14
2023-01-04T04:46:39.929Z,11
2023-01-04T04:47:39.929Z,10
2023-01-04T04:48:39.943Z,10
2023-01-04T04:49:39.944Z,10
2023-01-04T04:50:39.929Z,9
2023-01-04T04:51:40.008Z,9
2023-01-04T04:52:39.943Z,10
2023-01-04T04:53:39.943Z,10
2023-01-04T04:54:39.929Z,9
2023-01-04T04:55:39.943Z,8
2023-01-04T04:56:39.943Z,9
2023-01-04T04:57:39.943Z,9
2023-01-04T04:58:39.929Z,10
2023-01-04T04:59:39.944Z,12
2023-01-04T05:00:39.944Z,10
2023-01-04T05:01:39.944Z,12
2023-01-04T05:02:39.930Z,16
2023-01-04T05:03:43.363Z,13
2023-01-04T05:04:39.945Z,11
2023-01-04T05:05:39.930Z,11
2023-01-04T05:06:39.930Z,11
2023-01-04T05:07:39.944Z,11
2023-01-04T05:08:39.945Z,11
2023-01-04T05:09:39.930Z,11
2023-01-04T05:10:39.930Z,10
2023-01-04T05:11:39.944Z,10
2023-01-04T05:12:39.944Z,10
2023-01-04T05:13:39.930Z,12
2023-01-04T05:14:39.945Z,10
2023-01-04T05:16:39.945Z,9
2023-01-04T05:17:39.931Z,12
2023-01-04T05:18:39.945Z,8
2023-01-04T05:19:39.946Z,10
2023-01-04T05:20:39.945Z,8
2023-01-04T05:21:39.931Z,11
2023-01-04T05:22:39.945Z,10
2023-01-04T05:23:39.946Z,11
2023-01-04T05:24:39.931Z,10
2023-01-04T05:25:39.931Z,8
2023-01-04T05:26:39.945Z,8
2023-01-04T05:27:39.946Z,10
2023-01-04T05:28:39.931Z,13
2023-01-04T05:29:39.946Z,8
2023-01-04T05:30:39.946Z,8
2023-01-04T05:31:39.946Z,10
2023-01-04T05:32:39.932Z,11
2023-01-04T05:33:39.946Z,11
2023-01-04T05:34:40.012Z,10
2023-01-04T05:35:39.946Z,8
2023-01-04T05:36:39.932Z,8
2023-01-04T05:37:39.946Z,8
2023-01-04T05:38:39.947Z,9
2023-01-04T05:39:39.946Z,11
2023-01-04T05:40:39.932Z,14
2023-01-04T05:41:39.946Z,13
2023-01-04T05:42:39.947Z,10
2023-01-04T05:43:39.933Z,13
2023-01-04T05:44:39.933Z,13
2023-01-04T05:45:39.947Z,14
2023-01-04T05:46:39.972Z,12
2023-01-04T05:47:39.933Z,13
2023-01-04T05:48:39.947Z,16
2023-01-04T05:49:39.947Z,12
2023-01-04T05:50:39.947Z,12
2023-01-04T05:51:39.933Z,13
2023-01-04T05:52:39.947Z,12
2023-01-04T05:53:39.948Z,15
2023-01-04T05:54:39.947Z,16
2023-01-04T05:55:39.933Z,17
2023-01-04T05:56:39.948Z,20
2023-01-04T05:57:39.948Z,17
2023-01-04T05:58:39.948Z,15
2023-01-04T05:59:39.934Z,21
2023-01-04T06:00:39.948Z,17
2023-01-04T06:01:39.949Z,17
2023-01-04T06:02:39.934Z,16
2023-01-04T06:03:39.934Z,17
2023-01-04T06:04:39.948Z,14
2023-01-04T06:05:39.949Z,14
2023-01-04T06:06:39.934Z,13
2023-01-04T06:07:39.949Z,13
2023-01-04T06:08:39.949Z,13
2023-01-04T06:09:39.949Z,12
2023-01-04T06:10:39.935Z,14
2023-01-04T06:11:39.949Z,11
2023-01-04T06:12:39.950Z,10
2023-01-04T06:13:39.949Z,11
2023-01-04T06:14:39.935Z,8
2023-01-04T06:15:39.949Z,8
2023-01-04T06:16:39.950Z,13
2023-01-04T06:17:39.949Z,9
2023-01-04T06:18:39.935Z,12
2023-01-04T06:19:39.950Z,14
2023-01-04T06:20:39.950Z,12
2023-01-04T06:21:39.936Z,9
2023-01-04T06:22:39.936Z,11
2023-01-04T06:23:39.950Z,14
2023-01-04T06:24:39.951Z,12
2023-01-04T06:25:39.936Z,13
2023-01-04T06:26:39.936Z,13
2023-01-04T06:27:39.950Z,12
2023-01-04T06:28:39.950Z,11
2023-01-04T06:29:39.936Z,13
2023-01-04T06:30:39.951Z,16
2023-01-04T06:31:39.951Z,14
2023-01-04T06:32:39.951Z,17
2023-01-04T06:33:39.937Z,16
2023-01-04T06:34:39.951Z,17
2023-01-04T06:35:39.952Z,18
2023-01-04T06:36:39.951Z,10
2023-01-04T06:37:39.937Z,11
2023-01-04T06:38:39.952Z,9
2023-01-04T06:39:39.952Z,13
2023-01-04T06:40:39.938Z,16
2023-01-04T06:41:39.938Z,14
2023-01-04T06:42:39.952Z,15
2023-01-04T06:43:39.953Z,18
2023-01-04T06:44:39.938Z,19
2023-01-04T06:45:39.953Z,25
2023-01-04T06:46:39.952Z,22
2023-01-04T06:47:39.952Z,18
2023-01-04T06:48:39.938Z,21
2023-01-04T06:49:39.953Z,24
2023-01-04T06:50:40.019Z,19
2023-01-04T06:51:39.953Z,18
2023-01-04T06:52:39.939Z,21
2023-01-04T06:53:39.953Z,19
2023-01-04T06:54:39.954Z,25
2023-01-04T06:55:39.953Z,20
2023-01-04T06:56:39.939Z,22
2023-01-04T06:57:39.954Z,17
2023-01-04T06:58:39.954Z,17
2023-01-04T06:59:39.940Z,15
2023-01-04T07:00:39.940Z,22
2023-01-04T07:01:39.954Z,18
2023-01-04T07:02:39.955Z,17
2023-01-04T07:03:39.940Z,13
2023-01-04T07:04:39.954Z,13
2023-01-04T07:05:39.955Z,22
2023-01-04T07:06:39.955Z,17
2023-01-04T07:07:39.941Z,23
2023-01-04T07:08:39.955Z,21
2023-01-04T07:09:39.956Z,18
2023-01-04T07:10:39.955Z,21
2023-01-04T07:11:39.941Z,20
2023-01-04T07:12:39.955Z,16
2023-01-04T07:13:39.956Z,19
2023-01-04T07:14:39.942Z,21
2023-01-04T07:15:39.942Z,22
2023-01-04T07:16:39.956Z,20
2023-01-04T07:17:39.957Z,20
2023-01-04T07:18:39.942Z,21
2023-01-04T07:19:40.006Z,24
2023-01-04T07:20:39.956Z,19
2023-01-04T07:21:39.956Z,24
2023-01-04T07:22:39.943Z,22
2023-01-04T07:23:39.957Z,24
2023-01-04T07:24:39.957Z,19
2023-01-04T07:25:39.957Z,23
2023-01-04T07:26:39.957Z,22
2023-01-04T07:27:39.957Z,27
2023-01-04T07:28:39.958Z,26
2023-01-04T07:29:39.957Z,27
2023-01-04T07:30:39.944Z,33
2023-01-04T07:31:39.958Z,27
2023-01-04T07:32:39.959Z,30
2023-01-04T07:33:39.944Z,28
2023-01-04T07:34:39.944Z,27
2023-01-04T07:35:39.959Z,24
2023-01-04T07:36:39.959Z,22
2023-01-04T07:37:39.944Z,23
2023-01-04T07:38:39.945Z,20
2023-01-04T07:39:39.959Z,23
2023-01-04T07:40:39.960Z,22
2023-01-04T07:41:39.945Z,29
2023-01-04T07:42:39.959Z,22
2023-01-04T07:44:39.959Z,24
2023-01-04T07:45:39.946Z,32
2023-01-04T07:46:39.960Z,25
2023-01-04T07:47:39.961Z,21
2023-01-04T07:48:39.960Z,22
2023-01-04T07:49:39.946Z,23
2023-01-04T07:50:39.960Z,25
2023-01-04T07:51:39.961Z,23
2023-01-04T07:52:39.947Z,24
2023-01-04T07:53:39.947Z,29
2023-01-04T07:54:39.961Z,29
2023-01-04T07:55:39.962Z,21
2023-01-04T07:56:39.947Z,22
2023-01-04T07:57:39.947Z,26
2023-01-04T07:58:39.961Z,27
2023-01-04T07:59:39.962Z,25
2023-01-04T08:00:39.948Z,30
2023-01-04T08:01:39.962Z,33
2023-01-04T08:02:39.962Z,37
2023-01-04T08:03:39.962Z,40
2023-01-04T08:04:39.948Z,40
2023-01-04T08:05:39.963Z,39
2023-01-04T08:06:39.964Z,32
2023-01-04T08:07:39.963Z,31
2023-01-04T08:08:39.949Z,34
2023-01-04T08:09:40.027Z,30
2023-01-04T08:10:39.964Z,30
2023-01-04T08:11:39.949Z,26
2023-01-04T08:12:39.950Z,31
2023-01-04T08:13:39.964Z,34
2023-01-04T08:14:39.965Z,36
2023-01-04T08:15:39.950Z,32
2023-01-04T08:16:39.964Z,35
2023-01-04T08:17:39.964Z,31
2023-01-04T08:18:39.964Z,28
2023-01-04T08:19:39.950Z,32
2023-01-04T08:20:39.965Z,31
2023-01-04T08:21:40.010Z,29
2023-01-04T08:22:39.965Z,39
2023-01-04T08:23:39.951Z,30
2023-01-04T08:25:39.966Z,31
2023-01-04T08:26:39.965Z,42
2023-01-04T08:27:39.952Z,47
2023-01-04T08:28:39.966Z,50
2023-01-04T08:29:39.967Z,41
2023-01-04T08:30:39.952Z,52
2023-01-04T08:31:39.952Z,52
2023-01-04T08:32:39.966Z,45
2023-01-04T08:33:40.007Z,44
2023-01-04T08:34:39.953Z,43
2023-01-04T08:35:39.967Z,43
2023-01-04T08:36:39.967Z,41
2023-01-04T08:37:39.967Z,38
2023-01-04T08:38:39.953Z,41
2023-01-04T08:39:39.967Z,41
2023-01-04T08:40:39.971Z,39
2023-01-04T08:41:39.968Z,39
2023-01-04T08:42:39.954Z,48
2023-01-04T08:43:39.968Z,47
2023-01-04T08:44:39.969Z,44
2023-01-04T08:45:39.968Z,48
2023-01-04T08:46:39.954Z,44
2023-01-04T08:47:39.968Z,38
2023-01-04T08:48:39.969Z,40
2023-01-04T08:49:39.955Z,42
2023-01-04T08:50:39.955Z,39
2023-01-04T08:52:40.010Z,37
2023-01-04T08:53:39.955Z,39
2023-01-04T08:54:39.970Z,40
2023-01-04T08:55:39.970Z,38
2023-01-04T08:56:39.970Z,41
2023-01-04T08:57:39.956Z,40
2023-01-04T08:58:39.970Z,34
2023-01-04T08:59:39.971Z,29
2023-01-04T09:00:39.970Z,35
2023-01-04T09:01:39.956Z,34
2023-01-04T09:02:39.971Z,29
2023-01-04T09:03:39.971Z,36
2023-01-04T09:04:39.957Z,46
2023-01-04T09:05:39.957Z,36
2023-01-04T09:06:39.971Z,36
2023-01-04T09:07:39.972Z,36
2023-01-04T09:08:39.957Z,44
2023-01-04T09:09:39.972Z,44
2023-01-04T09:10:39.972Z,40
2023-01-04T09:11:39.972Z,41
2023-01-04T09:12:39.958Z,36
2023-01-04T09:13:39.972Z,31
2023-01-04T09:14:39.972Z,35
2023-01-04T09:15:39.973Z,41
2023-01-04T09:16:39.959Z,45
2023-01-04T09:17:39.973Z,39
2023-01-04T09:18:39.974Z,36
2023-01-04T09:19:39.973Z,43
2023-01-04T09:20:39.959Z,55
2023-01-04T09:21:39.974Z,46
2023-01-04T09:22:39.974Z,39
2023-01-04T09:23:39.960Z,41
2023-01-04T09:24:39.960Z,35
2023-01-04T09:25:39.974Z,39
2023-01-04T09:26:39.975Z,40
2023-01-04T09:27:39.960Z,30
2023-01-04T09:28:39.975Z,28
2023-01-04T09:29:39.975Z,31
2023-01-04T09:30:39.975Z,31
2023-01-04T09:31:39.961Z,38
2023-01-04T09:32:39.975Z,37
2023-01-04T09:33:40.041Z,25
2023-01-04T09:34:39.975Z,31
2023-01-04T09:35:39.962Z,43
2023-01-04T09:36:39.976Z,41
2023-01-04T09:37:39.977Z,36
2023-01-04T09:38:39.976Z,33
2023-01-04T09:39:39.962Z,28
2023-01-04T09:40:39.977Z,34
2023-01-04T09:41:39.977Z,34
2023-01-04T09:42:39.963Z,24
2023-01-04T09:43:39.963Z,31
2023-01-04T09:44:39.977Z,33
2023-01-04T09:45:39.978Z,32
2023-01-04T09:46:39.964Z,41
2023-01-04T09:47:39.978Z,43
2023-01-04T09:48:39.978Z,51
2023-01-04T09:49:39.978Z,44
2023-01-04T09:50:39.964Z,48
2023-01-04T09:51:39.979Z,45
2023-01-04T09:52:40.045Z,50
2023-01-04T09:53:39.979Z,42
2023-01-04T09:54:39.965Z,41
2023-01-04T09:55:39.980Z,45
2023-01-04T09:56:39.980Z,41
2023-01-04T09:57:39.980Z,42
2023-01-04T09:58:39.966Z,38
2023-01-04T09:59:39.980Z,51
2023-01-04T10:00:39.981Z,59
2023-01-04T10:01:39.966Z,51
2023-01-04T10:02:39.967Z,49
2023-01-04T10:03:39.981Z,45
2023-01-04T10:04:40.007Z,53
2023-01-04T10:05:39.967Z,49
2023-01-04T10:06:39.981Z,45
2023-01-04T10:07:39.982Z,56
2023-01-04T10:08:39.982Z,47
2023-01-04T10:09:39.968Z,56
2023-01-04T10:10:39.982Z,43
2023-01-04T10:11:39.983Z,43
2023-01-04T10:12:39.982Z,42
2023-01-04T10:14:39.983Z,44
2023-01-04T10:15:39.984Z,42
2023-01-04T10:16:39.969Z,37
2023-01-04T10:17:39.970Z,45
2023-01-04T10:18:39.984Z,44
2023-01-04T10:19:39.985Z,56
2023-01-04T10:20:39.970Z,48
2023-01-04T10:21:40.049Z,43
2023-01-04T10:22:39.985Z,51
2023-01-04T10:23:39.985Z,42
2023-01-04T10:24:39.971Z,44
2023-01-04T10:25:39.985Z,54
2023-01-04T10:26:39.985Z,41
2023-01-04T10:27:39.985Z,41
2023-01-04T10:28:39.972Z,40
2023-01-04T10:29:39.986Z,47
2023-01-04T10:30:39.987Z,48
2023-01-04T10:31:39.986Z,44
2023-01-04T10:32:39.972Z,51
2023-01-04T10:33:39.988Z,43
2023-01-04T10:34:39.988Z,43
2023-01-04T10:35:39.973Z,57
2023-01-04T10:36:39.973Z,42
2023-01-04T10:37:39.987Z,46
2023-01-04T10:38:39.989Z,43
2023-01-04T10:39:39.974Z,41
2023-01-04T10:40:39.990Z,45
2023-01-04T10:41:39.988Z,45
2023-01-04T10:42:39.988Z,42
2023-01-04T10:43:39.975Z,44
2023-01-04T10:44:39.989Z,50
2023-01-04T10:45:39.989Z,44
2023-01-04T10:46:39.989Z,41
2023-01-04T10:47:39.975Z,57
2023-01-04T10:48:39.990Z,50
2023-01-04T10:49:39.990Z,44
2023-01-04T10:50:39.990Z,41
2023-01-04T10:51:39.976Z,53
2023-01-04T10:52:39.990Z,48
2023-01-04T10:53:39.991Z,43
2023-01-04T10:54:39.977Z,58
2023-01-04T10:55:39.977Z,59
2023-01-04T10:56:39.991Z,63
2023-01-04T10:57:39.992Z,65
2023-01-04T10:58:39.977Z,56
2023-01-04T10:59:39.994Z,42
2023-01-04T11:00:39.992Z,46
2023-01-04T11:01:39.992Z,51
2023-01-04T11:02:39.978Z,50
2023-01-04T11:03:39.993Z,52
2023-01-04T11:04:40.059Z,53
2023-01-04T11:05:39.993Z,61
2023-01-04T11:06:39.979Z,62
2023-01-04T11:07:39.993Z,61
2023-01-04T11:08:39.994Z,50
2023-01-04T11:09:39.994Z,53
2023-01-04T11:10:39.980Z,42
2023-01-04T11:11:39.994Z,44
2023-01-04T11:12:39.995Z,54
2023-01-04T11:13:39.980Z,56
2023-01-04T11:14:39.981Z,50
2023-01-04T11:15:39.995Z,44
2023-01-04T11:16:40.021Z,42
2023-01-04T11:17:39.981Z,48
2023-01-04T11:18:39.996Z,43
2023-01-04T11:19:39.996Z,43
2023-01-04T11:20:39.996Z,53
2023-01-04T11:21:39.982Z,54
2023-01-04T11:22:39.996Z,43
2023-01-04T11:23:39.997Z,45
2023-01-04T11:24:39.997Z,61
2023-01-04T11:25:39.983Z,54
2023-01-04T11:26:39.997Z,45
2023-01-04T11:27:39.998Z,51
2023-01-04T11:28:39.984Z,56
2023-01-04T11:29:39.984Z,45
2023-01-04T11:30:39.998Z,47
2023-01-04T11:31:39.999Z,41
2023-01-04T11:32:39.984Z,41
2023-01-04T11:33:39.985Z,44
2023-01-04T11:34:39.999Z,52
2023-01-04T11:35:40.000Z,50
2023-01-04T11:36:39.985Z,48
2023-01-04T11:37:40.000Z,52
2023-01-04T11:38:40.000Z,48
2023-01-04T11:39:40.000Z,51
2023-01-04T11:40:39.986Z,46
2023-01-04T11:41:40.000Z,55
2023-01-04T11:42:40.001Z,54
2023-01-04T11:43:40.001Z,50
2023-01-04T11:44:39.987Z,42
2023-01-04T11:45:40.001Z,49
2023-01-04T11:46:40.002Z,41
2023-01-04T11:47:40.006Z,40
2023-01-04T11:48:39.988Z,38
2023-01-04T11:49:40.002Z,43
2023-01-04T11:50:40.003Z,46
2023-01-04T11:51:39.988Z,45
2023-01-04T11:52:39.989Z,47
2023-01-04T11:53:40.003Z,30
2023-01-04T11:54:40.003Z,35
2023-01-04T11:55:39.989Z,36
2023-01-04T11:56:40.004Z,41
2023-01-04T11:57:40.004Z,38
2023-01-04T11:58:40.004Z,43
2023-01-04T11:59:39.990Z,48
2023-01-04T12:00:40.004Z,40
2023-01-04T12:01:40.005Z,39
2023-01-04T12:02:40.005Z,46
2023-01-04T12:03:39.991Z,54
2023-01-04T12:04:40.005Z,48
2023-01-04T12:05:40.006Z,32
2023-01-04T12:06:39.992Z,38
2023-01-04T12:07:39.992Z,50
2023-01-04T12:08:40.006Z,61
2023-01-04T12:09:40.007Z,52
2023-01-04T12:10:39.993Z,54
2023-01-04T12:11:40.007Z,60
2023-01-04T12:12:40.007Z,54
2023-01-04T12:13:40.007Z,44
2023-01-04T12:14:39.994Z,45
2023-01-04T12:15:40.008Z,50
2023-01-04T12:16:40.074Z,55
2023-01-04T12:17:40.008Z,48
2023-01-04T12:18:39.995Z,53
2023-01-04T12:19:40.009Z,46
2023-01-04T12:20:40.010Z,50
2023-01-04T12:21:40.009Z,44
2023-01-04T12:22:39.995Z,41
2023-01-04T12:23:40.010Z,43
2023-01-04T12:24:40.011Z,45
2023-01-04T12:25:39.996Z,39
2023-01-04T12:26:39.996Z,38
2023-01-04T12:27:40.011Z,36
2023-01-04T12:28:40.011Z,41
2023-01-04T12:29:39.997Z,37
2023-01-04T12:31:40.011Z,55
2023-01-04T12:32:40.012Z,50
2023-01-04T12:34:40.012Z,38
2023-01-04T12:35:40.012Z,44
2023-01-04T12:36:40.013Z,45
2023-01-04T12:37:39.999Z,50
2023-01-04T12:38:40.013Z,41
2023-01-04T12:39:40.014Z,38
2023-01-04T12:40:40.014Z,39
2023-01-04T12:41:40.000Z,46
2023-01-04T12:42:40.014Z,39
2023-01-04T12:43:40.015Z,43
2023-01-04T12:44:43.569Z,29
2023-01-04T12:45:40.001Z,46
2023-01-04T12:46:40.015Z,42
2023-01-04T12:47:40.016Z,48
2023-01-04T12:48:40.015Z,37
2023-01-04T12:49:40.002Z,36
2023-01-04T12:50:40.016Z,33
2023-01-04T12:51:40.017Z,27
2023-01-04T12:52:40.002Z,39
2023-01-04T12:53:40.003Z,37
2023-01-04T12:54:40.017Z,36
2023-01-04T12:55:40.018Z,37
2023-01-04T12:56:40.003Z,37
2023-01-04T12:57:40.082Z,41
2023-01-04T12:58:40.018Z,39
2023-01-04T12:59:40.018Z,35
2023-01-04T13:00:40.004Z,28
2023-01-04T13:01:40.019Z,36
2023-01-04T13:02:40.019Z,39
2023-01-04T13:03:40.019Z,33
2023-01-04T13:04:40.005Z,29
2023-01-04T13:05:40.019Z,36
2023-01-04T13:06:40.020Z,32
2023-01-04T13:07:40.020Z,31
2023-01-04T13:08:40.006Z,40
2023-01-04T13:09:40.021Z,40
2023-01-04T13:10:40.021Z,38
2023-01-04T13:11:40.007Z,42
2023-01-04T13:12:40.007Z,42
2023-01-04T13:13:40.021Z,37
2023-01-04T13:14:40.023Z,37
2023-01-04T13:15:40.008Z,36
2023-01-04T13:16:40.022Z,42
2023-01-04T13:17:40.022Z,36
2023-01-04T13:18:40.022Z,58
2023-01-04T13:19:40.008Z,51
2023-01-04T13:20:40.023Z,55
2023-01-04T13:21:40.024Z,48
2023-01-04T13:22:40.023Z,46
2023-01-04T13:23:40.009Z,41
2023-01-04T13:24:40.024Z,41
2023-01-04T13:25:40.025Z,43
2023-01-04T13:26:40.010Z,38
2023-01-04T13:27:40.010Z,36
2023-01-04T13:28:40.025Z,39
2023-01-04T13:29:40.026Z,45
2023-01-04T13:30:40.011Z,45
2023-01-04T13:31:40.011Z,48
2023-01-04T13:32:40.026Z,46
2023-01-04T13:33:40.026Z,37
2023-01-04T13:34:40.012Z,32
2023-01-04T13:35:40.026Z,34
2023-01-04T13:36:40.027Z,38
2023-01-04T13:37:40.027Z,44
2023-01-04T13:38:40.013Z,48
2023-01-04T13:39:40.028Z,42
2023-01-04T13:40:40.028Z,44
2023-01-04T13:41:40.028Z,46
2023-01-04T13:42:40.014Z,49
2023-01-04T13:43:40.028Z,51
2023-01-04T13:44:40.030Z,60
2023-01-04T13:45:40.042Z,53
2023-01-04T13:46:40.015Z,59
2023-01-04T13:47:40.029Z,65
2023-01-04T13:48:40.030Z,49
2023-01-04T13:49:40.016Z,38
2023-01-04T13:50:40.016Z,40
2023-01-04T13:51:40.030Z,44
2023-01-04T13:52:40.030Z,43
2023-01-04T13:53:40.017Z,40
2023-01-04T13:54:40.031Z,46
2023-01-04T13:55:40.031Z,41
2023-01-04T13:56:40.031Z,41
2023-01-04T13:57:40.017Z,42
2023-01-04T13:58:40.032Z,42
2023-01-04T13:59:40.059Z,39
2023-01-04T14:00:40.032Z,43
2023-01-04T14:01:40.018Z,37
2023-01-04T14:02:40.033Z,33
2023-01-04T14:03:40.034Z,39
2023-01-04T14:04:40.033Z,43
2023-01-04T14:05:40.019Z,35
2023-01-04T14:06:40.098Z,37
2023-01-04T14:07:40.035Z,44
2023-01-04T14:08:40.020Z,45
2023-01-04T14:09:40.020Z,42
2023-01-04T14:10:40.035Z,39
2023-01-04T14:11:40.035Z,43
2023-01-04T14:12:40.021Z,43
2023-01-04T14:13:40.035Z,58
2023-01-04T14:14:40.036Z,53
2023-01-04T14:15:40.036Z,53
2023-01-04T14:16:40.022Z,47
2023-01-04T14:17:40.036Z,51
2023-01-04T14:18:40.082Z,55
2023-01-04T14:19:40.037Z,50
2023-01-04T14:20:40.023Z,46
2023-01-04T14:21:40.037Z,43
2023-01-04T14:22:40.038Z,33
2023-01-04T14:23:40.038Z,35
2023-01-04T14:24:40.024Z,40
2023-01-04T14:25:40.038Z,28
2023-01-04T14:26:40.039Z,34
2023-01-04T14:27:40.025Z,40
2023-01-04T14:28:40.025Z,31
2023-01-04T14:29:40.039Z,28